Time;durP1;ratioP1;P1;durP2;ratioP2;P2;SDS_P1;SDS_P2;PMS_P1;PMS_P2;Temp;Humidity;BMP_temperature;BMP_pressure;BME280_temperature;BME280_humidity;BME280_pressure;Samples;Min_cycle;Max_cycle;Signal;HPM_P1;HPM_P2
2023/03/21 00:00:23;;;;;;;;;;;;;;;22.18;27.48;97906.16;4977540;28;1033;-75
2023/03/21 00:02:48;;;;;;;;;;;;;;;22.32;27.24;97905.69;4961016;28;1910;-75
2023/03/21 00:05:14;;;;;;;;;;;;;;;22.32;27.47;97894.34;4945116;28;954;-75
2023/03/21 00:07:39;;;;;;;;;;;;;;;21.92;27.87;97895.97;4945261;28;1203;-75
2023/03/21 00:10:05;;;;;;;;;;;;;;;21.50;28.25;97898.78;4929591;28;1240;-75
2023/03/21 00:12:31;;;;;;;;;;;;;;;21.90;28.10;97890.75;4945086;28;1275;-75
2023/03/21 00:15:03;;;;;;;;;;;;;;;22.04;27.84;97883.88;4960566;28;1225;-75
2023/03/21 00:17:31;;;;;;;;;;;;;;;22.07;27.88;97888.63;4960965;28;1232;-75
2023/03/21 00:19:57;;;;;;;;;;;;;;;21.85;27.82;97889.25;4945306;28;981;-75
2023/03/21 00:22:22;;;;;;;;;;;;;;;21.89;27.63;97877.03;4945018;28;1973;-75
2023/03/21 00:24:48;;;;;;;;;;;;;;;21.87;27.70;97876.72;4934384;29;970;-75
2023/03/21 00:27:14;;;;;;;;;;;;;;;21.89;28.10;97874.22;4906802;29;913;-76
2023/03/21 00:29:40;;;;;;;;;;;;;;;22.07;27.72;97871.63;4922628;29;968;-76
2023/03/21 00:32:05;;;;;;;;;;;;;;;22.19;27.65;97873.72;4922407;29;1140;-75
2023/03/21 00:34:32;;;;;;;;;;;;;;;21.99;27.64;97870.25;4919112;29;1145;-75
2023/03/21 00:36:58;;;;;;;;;;;;;;;21.91;27.78;97861.16;4919618;29;928;-75
2023/03/21 00:39:23;;;;;;;;;;;;;;;21.55;28.38;97855.75;4919562;29;1007;-74
2023/03/21 00:41:50;;;;;;;;;;;;;;;22.25;27.54;97854.91;4887929;29;1906;-75
2023/03/21 00:44:16;;;;;;;;;;;;;;;22.46;27.27;97852.63;4919227;29;979;-75
2023/03/21 00:46:42;;;;;;;;;;;;;;;22.12;27.51;97851.25;4887476;29;1572;-75
2023/03/21 00:49:07;;;;;;;;;;;;;;;21.94;27.61;97862.31;4919142;29;1105;-75
2023/03/21 00:51:33;;;;;;;;;;;;;;;21.89;27.82;97855.16;4903447;29;1014;-75
2023/03/21 00:53:58;;;;;;;;;;;;;;;21.88;27.92;97858.47;4903398;29;1161;-75
2023/03/21 00:56:26;;;;;;;;;;;;;;;21.99;28.02;97856.88;4903199;29;1198;-75
2023/03/21 00:58:52;;;;;;;;;;;;;;;22.17;27.83;97858.41;4884090;29;1277;-75
2023/03/21 01:01:17;;;;;;;;;;;;;;;22.27;27.25;97852.38;4901742;29;1923;-75
2023/03/21 01:03:49;;;;;;;;;;;;;;;21.98;27.57;97852.47;4918630;29;1237;-75
2023/03/21 01:06:18;;;;;;;;;;;;;;;21.82;27.83;97852.56;4903025;29;1260;-75
2023/03/21 01:08:43;;;;;;;;;;;;;;;21.77;28.00;97842.59;4884068;29;1212;-75
2023/03/21 01:11:13;;;;;;;;;;;;;;;22.24;27.50;97841.97;4887381;29;1252;-75
2023/03/21 01:13:39;;;;;;;;;;;;;;;22.23;27.64;97848.91;4902991;29;1118;-75
2023/03/21 01:16:05;;;;;;;;;;;;;;;22.20;27.47;97846.97;4903081;29;1320;-75
2023/03/21 01:18:30;;;;;;;;;;;;;;;21.88;27.96;97841.47;4902773;29;1132;-75
2023/03/21 01:20:56;;;;;;;;;;;;;;;21.79;28.02;97836.47;4902654;29;1887;-75
2023/03/21 01:23:22;;;;;;;;;;;;;;;21.88;28.15;97836.59;4902413;29;1296;-76
2023/03/21 01:25:48;;;;;;;;;;;;;;;21.97;28.09;97818.94;4918174;29;1126;-74
2023/03/21 01:28:14;;;;;;;;;;;;;;;22.38;27.14;97829.38;4903141;29;1044;-75
2023/03/21 01:30:43;;;;;;;;;;;;;;;21.96;27.56;97834.31;4905533;29;1597;-75
2023/03/21 01:33:09;;;;;;;;;;;;;;;21.88;27.96;97824.47;4937553;29;1023;-75
2023/03/21 01:35:35;;;;;;;;;;;;;;;21.62;28.06;97824.41;4921384;29;1212;-75
2023/03/21 01:38:01;;;;;;;;;;;;;;;22.06;27.67;97825.50;4937318;29;1164;-76
2023/03/21 01:40:26;;;;;;;;;;;;;;;22.26;27.57;97827.34;4905708;29;1172;-75
2023/03/21 01:43:18;;;;;;;;;;;;;;;22.12;27.52;97824.94;4936673;29;1910;-75
2023/03/21 01:46:06;;;;;;;;;;;;;;;22.06;27.49;97813.38;4921025;29;1138;-75
2023/03/21 01:48:56;;;;;;;;;;;;;;;21.76;28.22;97814.69;4936667;29;1267;-75
2023/03/21 01:51:22;;;;;;;;;;;;;;;21.81;28.15;97814.94;4905267;29;947;-75
2023/03/21 01:53:54;;;;;;;;;;;;;;;22.19;27.82;97805.69;4920975;29;1136;-75
2023/03/21 01:56:30;;;;;;;;;;;;;;;22.24;27.77;97802.31;4936705;29;1145;-75
2023/03/21 01:59:12;;;;;;;;;;;;;;;21.91;28.02;97801.69;4898892;29;1338;-75
2023/03/21 02:01:57;;;;;;;;;;;;;;;21.81;27.91;97820.63;4885350;29;1911;-75
2023/03/21 02:04:26;;;;;;;;;;;;;;;21.55;28.20;97830.28;4879888;29;1422;-75
2023/03/21 02:07:23;;;;;;;;;;;;;;;21.94;28.25;97828.31;4842705;29;1057;-75
2023/03/21 02:09:52;;;;;;;;;;;;;;;22.23;27.50;97829.06;4806526;29;1163;-75
2023/03/21 02:12:20;;;;;;;;;;;;;;;22.07;27.62;97834.78;4791750;29;1171;-75
2023/03/21 02:14:47;;;;;;;;;;;;;;;21.72;28.15;97834.63;4806595;29;1136;-75
2023/03/21 02:18:10;;;;;;;;;;;;;;;21.79;28.02;97834.41;4788377;30;1049;-75
2023/03/21 02:20:44;;;;;;;;;;;;;;;22.06;27.90;97824.69;4750046;30;1302;-75
2023/03/21 02:23:43;;;;;;;;;;;;;;;22.20;27.48;97829.94;4749667;30;1990;-75
2023/03/21 02:26:29;;;;;;;;;;;;;;;22.28;27.53;97814.31;4735269;30;1130;-75
2023/03/21 02:29:16;;;;;;;;;;;;;;;22.23;27.34;97823.41;4735069;30;1245;-75
2023/03/21 02:31:48;;;;;;;;;;;;;;;22.03;27.76;97817.13;4717889;30;1071;-75
2023/03/21 02:34:17;;;;;;;;;;;;;;;21.95;27.58;97810.88;4703113;30;1135;-75
2023/03/21 02:36:47;;;;;;;;;;;;;;;21.77;28.20;97814.25;4717417;30;1087;-75
2023/03/21 02:39:17;;;;;;;;;;;;;;;22.19;27.68;97814.19;4717753;30;1229;-75
2023/03/21 02:41:50;;;;;;;;;;;;;;;22.36;27.23;97798.66;4748876;30;1972;-75
2023/03/21 02:44:33;;;;;;;;;;;;;;;21.89;27.73;97812.69;4778121;29;1220;-75
2023/03/21 02:47:09;;;;;;;;;;;;;;;21.61;28.26;97820.00;4806258;29;1206;-75
2023/03/21 02:49:43;;;;;;;;;;;;;;;21.68;28.17;97819.78;4803017;29;1101;-75
2023/03/21 02:52:13;;;;;;;;;;;;;;;22.01;27.92;97811.09;4788340;29;1116;-75
2023/03/21 02:54:38;;;;;;;;;;;;;;;22.23;27.48;97808.44;4813684;29;1192;-75
2023/03/21 02:57:04;;;;;;;;;;;;;;;22.02;27.61;97812.69;4794292;29;1178;-76
2023/03/21 02:59:30;;;;;;;;;;;;;;;21.84;28.15;97814.03;4855205;29;1131;-75
2023/03/21 03:01:58;;;;;;;;;;;;;;;21.81;28.13;97805.63;4853295;29;1990;-75
2023/03/21 03:04:26;;;;;;;;;;;;;;;21.79;27.89;97803.25;4860800;29;1127;-75
2023/03/21 03:06:55;;;;;;;;;;;;;;;22.09;27.95;97803.97;4830338;29;1492;-75
2023/03/21 03:09:21;;;;;;;;;;;;;;;22.06;27.66;97813.38;4904563;29;1192;-75
2023/03/21 03:11:47;;;;;;;;;;;;;;;21.77;28.06;97802.94;4904463;29;1156;-75
2023/03/21 03:14:32;;;;;;;;;;;;;;;21.79;28.33;97800.44;4920279;29;969;-75
2023/03/21 03:17:16;;;;;;;;;;;;;;;21.73;28.21;97799.41;4904167;29;1310;-75
2023/03/21 03:20:03;;;;;;;;;;;;;;;21.93;28.33;97801.25;4922101;29;1173;-75
2023/03/21 03:22:39;;;;;;;;;;;;;;;22.20;27.56;97800.81;4879222;29;1980;-75
2023/03/21 03:25:07;;;;;;;;;;;;;;;21.91;27.65;97803.72;4879076;29;1009;-76
2023/03/21 03:27:34;;;;;;;;;;;;;;;21.89;27.94;97797.72;4895020;29;1224;-75
2023/03/21 03:30:02;;;;;;;;;;;;;;;21.84;27.98;97802.69;4894960;29;1213;-76
2023/03/21 03:32:34;;;;;;;;;;;;;;;21.90;28.17;97804.97;4879798;29;1384;-76
2023/03/21 03:34:59;;;;;;;;;;;;;;;22.15;27.94;97816.34;4888779;29;1117;-76
2023/03/21 03:37:30;;;;;;;;;;;;;;;22.31;27.63;97816.22;4882219;29;1232;-75
2023/03/21 03:40:00;;;;;;;;;;;;;;;21.91;27.82;97804.50;4866765;29;1361;-75
2023/03/21 03:42:30;;;;;;;;;;;;;;;21.96;27.71;97814.50;4882620;29;1916;-75
2023/03/21 03:45:02;;;;;;;;;;;;;;;21.85;27.91;97804.28;4882131;29;1293;-75
2023/03/21 03:47:47;;;;;;;;;;;;;;;21.79;28.32;97806.09;4882318;29;1252;-75
2023/03/21 03:50:16;;;;;;;;;;;;;;;21.98;27.98;97800.69;4899825;29;1086;-75
2023/03/21 03:52:43;;;;;;;;;;;;;;;22.31;27.44;97802.06;4901154;29;1205;-75
2023/03/21 03:55:11;;;;;;;;;;;;;;;21.92;27.78;97805.34;4870649;29;1111;-75
2023/03/21 03:57:40;;;;;;;;;;;;;;;21.87;28.09;97805.91;4870365;29;1288;-75
2023/03/21 04:00:12;;;;;;;;;;;;;;;21.72;28.29;97803.50;4895688;29;1097;-75
2023/03/21 04:02:44;;;;;;;;;;;;;;;22.01;28.11;97805.44;4886522;29;1994;-75
2023/03/21 04:05:11;;;;;;;;;;;;;;;22.32;27.33;97792.28;4885890;29;1222;-75
2023/03/21 04:07:37;;;;;;;;;;;;;;;21.92;27.75;97786.28;4895314;29;1136;-75
2023/03/21 04:10:03;;;;;;;;;;;;;;;21.92;27.75;97788.34;4942001;29;1171;-75
2023/03/21 04:12:37;;;;;;;;;;;;;;;21.76;28.22;97783.53;4927123;29;1037;-75
2023/03/21 04:15:17;;;;;;;;;;;;;;;22.04;27.94;97782.66;4927719;29;1178;-76
2023/03/21 04:17:48;;;;;;;;;;;;;;;22.12;27.71;97777.56;4927353;29;1105;-75
2023/03/21 04:20:13;;;;;;;;;;;;;;;22.22;27.58;97784.94;4941744;29;1043;-75
2023/03/21 04:22:39;;;;;;;;;;;;;;;21.81;28.04;97792.28;4919062;29;1989;-76
2023/03/21 04:25:06;;;;;;;;;;;;;;;21.92;27.85;97796.84;4888212;29;1133;-75
2023/03/21 04:27:33;;;;;;;;;;;;;;;21.95;27.70;97804.41;4919352;29;1203;-75
2023/03/21 04:30:18;;;;;;;;;;;;;;;22.05;27.87;97803.28;4906168;29;1007;-75
2023/03/21 04:32:55;;;;;;;;;;;;;;;22.09;28.02;97812.47;4904275;29;1216;-75
2023/03/21 04:35:21;;;;;;;;;;;;;;;21.97;28.17;97811.22;4889181;29;1239;-75
2023/03/21 04:37:47;;;;;;;;;;;;;;;21.84;28.10;97808.38;4920325;29;1164;-75
2023/03/21 04:40:16;;;;;;;;;;;;;;;21.80;28.34;97806.88;4919063;29;1203;-75
2023/03/21 04:42:42;;;;;;;;;;;;;;;21.71;28.41;97807.56;4919036;29;1914;-75
2023/03/21 04:45:07;;;;;;;;;;;;;;;21.78;28.54;97807.34;4935182;29;1136;-75
2023/03/21 04:47:33;;;;;;;;;;;;;;;22.04;28.01;97808.16;4902928;29;1087;-76
2023/03/21 04:49:59;;;;;;;;;;;;;;;22.27;27.53;97812.72;4918982;29;994;-76
2023/03/21 04:52:24;;;;;;;;;;;;;;;22.01;27.76;97816.75;4903058;29;1146;-76
2023/03/21 04:54:50;;;;;;;;;;;;;;;21.67;28.41;97809.72;4887556;29;1377;-75
2023/03/21 04:57:16;;;;;;;;;;;;;;;21.69;28.24;97807.22;4887544;29;1205;-75
2023/03/21 04:59:42;;;;;;;;;;;;;;;22.05;28.21;97794.78;4893367;29;1015;-75
2023/03/21 05:02:08;;;;;;;;;;;;;;;22.31;27.51;97787.88;4906207;29;1974;-75
2023/03/21 05:04:33;;;;;;;;;;;;;;;22.07;27.70;97800.78;4905544;29;1436;-75
2023/03/21 05:06:59;;;;;;;;;;;;;;;21.92;28.18;97797.63;4906102;29;1192;-76
2023/03/21 05:09:25;;;;;;;;;;;;;;;21.76;28.32;97801.34;4891729;29;1197;-76
2023/03/21 05:11:50;;;;;;;;;;;;;;;21.72;28.21;97823.31;4887583;29;1080;-75
2023/03/21 05:14:17;;;;;;;;;;;;;;;22.08;28.08;97823.00;4887173;29;1276;-76
2023/03/21 05:16:54;;;;;;;;;;;;;;;22.18;27.91;97806.97;4903140;29;1089;-74
2023/03/21 05:19:24;;;;;;;;;;;;;;;22.02;27.87;97795.69;4904151;29;1001;-76
2023/03/21 05:21:51;;;;;;;;;;;;;;;21.89;28.14;97790.03;4887321;29;1984;-75
2023/03/21 05:24:23;;;;;;;;;;;;;;;21.73;28.34;97790.91;4878104;29;1394;-76
2023/03/21 05:26:51;;;;;;;;;;;;;;;21.72;28.70;97800.66;4937053;29;1212;-75
2023/03/21 05:29:20;;;;;;;;;;;;;;;22.14;28.12;97794.94;4920020;28;956;-75
2023/03/21 05:31:54;;;;;;;;;;;;;;;22.22;27.68;97795.47;4961976;28;1068;-75
2023/03/21 05:34:20;;;;;;;;;;;;;;;22.00;28.04;97803.84;4939881;29;1302;-75
2023/03/21 05:36:45;;;;;;;;;;;;;;;21.90;28.06;97799.31;4941197;28;1529;-76
2023/03/21 05:39:11;;;;;;;;;;;;;;;21.94;28.03;97795.13;4965901;28;1499;-75
2023/03/21 05:41:41;;;;;;;;;;;;;;;21.90;28.23;97802.94;4970405;28;1902;-75
2023/03/21 05:44:07;;;;;;;;;;;;;;;22.23;27.83;97806.38;4969813;28;1593;-76
2023/03/21 05:46:34;;;;;;;;;;;;;;;22.35;27.52;97813.28;4955340;28;1579;-76
2023/03/21 05:49:00;;;;;;;;;;;;;;;22.03;27.79;97819.94;4970763;28;1555;-76
2023/03/21 05:51:25;;;;;;;;;;;;;;;21.78;28.54;97821.50;4951203;28;1612;-76
2023/03/21 05:53:51;;;;;;;;;;;;;;;21.76;28.42;97823.19;4949193;28;1631;-76
2023/03/21 05:56:16;;;;;;;;;;;;;;;22.05;28.34;97834.44;4966148;28;1704;-76
2023/03/21 05:58:51;;;;;;;;;;;;;;;22.27;27.76;97840.25;4958699;28;1144;-76
2023/03/21 06:01:18;;;;;;;;;;;;;;;22.12;27.81;97845.59;4962512;28;1977;-76
2023/03/21 06:03:51;;;;;;;;;;;;;;;22.14;27.57;97843.09;4963215;28;1196;-75
2023/03/21 06:06:22;;;;;;;;;;;;;;;22.05;27.77;97834.44;5012848;28;1124;-75
2023/03/21 06:08:53;;;;;;;;;;;;;;;21.66;28.31;97842.09;4984154;28;1196;-76
2023/03/21 06:11:25;;;;;;;;;;;;;;;21.99;28.05;97837.06;4998535;28;1417;-75
2023/03/21 06:14:00;;;;;;;;;;;;;;;22.21;27.87;97834.38;4984656;28;945;-76
2023/03/21 06:16:27;;;;;;;;;;;;;;;22.23;27.71;97829.06;5015726;28;943;-75
2023/03/21 06:18:53;;;;;;;;;;;;;;;21.96;27.96;97828.66;4977929;28;1124;-76
2023/03/21 06:21:33;;;;;;;;;;;;;;;22.05;27.80;97826.75;4963824;28;1967;-75
2023/03/21 06:23:59;;;;;;;;;;;;;;;21.83;28.08;97835.09;4961982;28;1116;-75
2023/03/21 06:26:25;;;;;;;;;;;;;;;22.07;28.06;97831.94;4985790;28;1571;-76
2023/03/21 06:28:52;;;;;;;;;;;;;;;22.19;27.70;97845.38;4970208;28;1999;-75
2023/03/21 06:31:19;;;;;;;;;;;;;;;22.01;27.82;97845.88;4978260;28;1101;-75
2023/03/21 06:33:45;;;;;;;;;;;;;;;21.85;28.04;97843.16;4939261;29;1132;-74
2023/03/21 06:36:10;;;;;;;;;;;;;;;21.72;28.33;97840.31;4923763;29;1400;-75
2023/03/21 06:38:36;;;;;;;;;;;;;;;21.82;28.15;97838.41;4923621;29;1097;-75
2023/03/21 06:41:04;;;;;;;;;;;;;;;22.22;27.77;97847.28;4939623;29;1906;-75
2023/03/21 06:43:33;;;;;;;;;;;;;;;22.22;27.78;97838.78;4923779;29;1121;-76
2023/03/21 06:46:01;;;;;;;;;;;;;;;22.04;27.68;97838.53;4920621;29;1322;-75
2023/03/21 06:48:26;;;;;;;;;;;;;;;22.04;27.80;97844.19;4920493;29;1070;-75
2023/03/21 06:50:53;;;;;;;;;;;;;;;21.72;28.61;97840.31;4920423;29;1392;-75
2023/03/21 06:53:23;;;;;;;;;;;;;;;22.01;28.37;97819.59;4936251;29;1231;-75
2023/03/21 06:56:09;;;;;;;;;;;;;;;22.27;27.58;97812.72;4898151;29;974;-75
2023/03/21 06:58:35;;;;;;;;;;;;;;;22.22;27.82;97810.44;4898589;29;1278;-75
2023/03/21 07:01:02;;;;;;;;;;;;;;;21.99;28.08;97813.59;4898204;29;1381;-75
2023/03/21 07:03:30;;;;;;;;;;;;;;;22.02;27.97;97819.16;4898017;29;1489;-74
2023/03/21 07:06:02;;;;;;;;;;;;;;;21.79;28.16;97820.25;4898287;29;1233;-75
2023/03/21 07:08:28;;;;;;;;;;;;;;;21.61;28.47;97822.84;4917043;29;1112;-75
2023/03/21 07:10:54;;;;;;;;;;;;;;;21.98;28.24;97835.47;4901419;29;1704;-75
2023/03/21 07:13:20;;;;;;;;;;;;;;;22.17;28.14;97839.34;4885668;29;1173;-75
2023/03/21 07:15:53;;;;;;;;;;;;;;;22.00;27.82;97829.34;4902795;29;1270;-75
2023/03/21 07:18:19;;;;;;;;;;;;;;;21.75;28.38;97827.28;4920274;29;1215;-75
2023/03/21 07:20:46;;;;;;;;;;;;;;;21.69;28.28;97824.19;4888920;29;1074;-76
2023/03/21 07:23:12;;;;;;;;;;;;;;;21.63;28.55;97820.34;4905122;29;1974;-76
2023/03/21 07:25:38;;;;;;;;;;;;;;;22.16;27.92;97823.59;4908176;29;1100;-76
2023/03/21 07:28:07;;;;;;;;;;;;;;;22.08;28.19;97816.56;4908124;29;1196;-77
2023/03/21 07:30:34;;;;;;;;;;;;;;;21.93;27.98;97833.19;4893233;29;1483;-76
2023/03/21 07:33:01;;;;;;;;;;;;;;;21.89;28.28;97828.88;4963146;28;1443;-77
2023/03/21 07:35:27;;;;;;;;;;;;;;;21.74;28.25;97820.81;4981408;28;1255;-76
2023/03/21 07:37:53;;;;;;;;;;;;;;;21.82;28.60;97816.53;4965123;28;1326;-75
2023/03/21 07:40:18;;;;;;;;;;;;;;;22.26;27.72;97816.78;4979219;28;1164;-75
2023/03/21 07:42:44;;;;;;;;;;;;;;;22.16;28.04;97823.59;4998571;28;1902;-76
2023/03/21 07:45:19;;;;;;;;;;;;;;;22.03;27.81;97825.63;4982844;28;1367;-75
2023/03/21 07:47:45;;;;;;;;;;;;;;;21.90;28.02;97817.09;4998072;28;1006;-76
2023/03/21 07:50:10;;;;;;;;;;;;;;;21.79;28.21;97808.94;4966212;28;1581;-76
2023/03/21 07:52:36;;;;;;;;;;;;;;;21.83;28.72;97801.13;4982347;28;1281;-76
2023/03/21 07:55:02;;;;;;;;;;;;;;;22.22;27.70;97789.81;4999622;28;1059;-76
2023/03/21 07:57:27;;;;;;;;;;;;;;;22.26;27.89;97785.63;4998441;28;930;-77
2023/03/21 07:59:53;;;;;;;;;;;;;;;21.89;28.19;97797.72;5000144;28;934;-77
2023/03/21 08:02:18;;;;;;;;;;;;;;;21.84;28.28;97791.38;5000378;28;1970;-77
2023/03/21 08:04:44;;;;;;;;;;;;;;;21.92;27.95;97785.50;5000132;28;1234;-77
2023/03/21 08:07:10;;;;;;;;;;;;;;;22.10;28.26;97785.72;5000475;28;925;-77
2023/03/21 08:09:36;;;;;;;;;;;;;;;22.26;27.88;97791.28;5000185;28;999;-76
2023/03/21 08:12:02;;;;;;;;;;;;;;;22.53;27.31;97792.84;5000242;28;946;-74
2023/03/21 08:14:27;;;;;;;;;;;;;;;22.00;27.92;97798.97;4983085;28;1725;-76
2023/03/21 08:16:53;;;;;;;;;;;;;;;21.92;28.05;97803.28;4964220;28;1219;-75
2023/03/21 08:19:20;;;;;;;;;;;;;;;21.98;28.21;97800.69;4980456;28;1235;-75
2023/03/21 08:21:49;;;;;;;;;;;;;;;22.18;28.35;97804.13;4980512;28;1984;-76
2023/03/21 08:24:14;;;;;;;;;;;;;;;22.05;28.07;97812.56;4922473;29;969;-75
2023/03/21 08:26:40;;;;;;;;;;;;;;;22.23;27.97;97805.59;4907021;29;918;-75
2023/03/21 08:29:06;;;;;;;;;;;;;;;21.96;28.03;97797.50;4938763;29;867;-76
2023/03/21 08:31:31;;;;;;;;;;;;;;;21.90;28.14;97811.44;4938262;29;943;-75
2023/03/21 08:33:57;;;;;;;;;;;;;;;21.77;28.31;97828.41;4938866;29;1010;-75
2023/03/21 08:36:22;;;;;;;;;;;;;;;22.06;28.51;97845.31;4922013;29;1013;-75
2023/03/21 08:38:52;;;;;;;;;;;;;;;22.45;27.66;97839.72;4938346;29;994;-75
2023/03/21 08:41:20;;;;;;;;;;;;;;;22.08;27.88;97837.19;4922312;29;1970;-74
2023/03/21 08:43:49;;;;;;;;;;;;;;;21.93;28.31;97849.41;4937973;29;1006;-75
2023/03/21 08:46:15;;;;;;;;;;;;;;;21.70;28.48;97842.78;4922419;29;1128;-75
2023/03/21 08:48:41;;;;;;;;;;;;;;;21.83;28.39;97835.09;4922149;29;990;-75
2023/03/21 08:51:06;;;;;;;;;;;;;;;22.12;28.18;97830.63;4937990;29;1008;-75
2023/03/21 08:53:32;;;;;;;;;;;;;;;22.44;27.40;97823.94;4922147;29;1231;-75
2023/03/21 08:55:57;;;;;;;;;;;;;;;21.98;27.84;97817.69;4970839;28;955;-75
2023/03/21 08:58:23;;;;;;;;;;;;;;;21.86;28.25;97805.06;4977554;28;1034;-75
2023/03/21 09:00:48;;;;;;;;;;;;;;;21.79;28.12;97806.09;4977790;28;1127;-75
2023/03/21 09:03:14;;;;;;;;;;;;;;;21.83;28.83;97789.00;4986336;28;1989;-75
2023/03/21 09:05:40;;;;;;;;;;;;;;;22.19;28.16;97788.69;4980583;28;929;-75
2023/03/21 09:08:05;;;;;;;;;;;;;;;22.44;27.28;97798.44;4980388;28;894;-76
2023/03/21 09:10:31;;;;;;;;;;;;;;;21.96;28.35;97814.50;4996544;28;916;-75
2023/03/21 09:12:57;;;;;;;;;;;;;;;21.85;28.30;97809.94;4996814;28;984;-75
2023/03/21 09:15:23;;;;;;;;;;;;;;;21.90;27.99;97816.31;4979207;28;1160;-75
2023/03/21 09:17:51;;;;;;;;;;;;;;;22.23;27.97;97826.22;4963251;28;1098;-75
2023/03/21 09:20:19;;;;;;;;;;;;;;;22.32;27.59;97826.31;4963753;28;993;-75
2023/03/21 09:22:46;;;;;;;;;;;;;;;22.56;27.22;97817.47;4944189;28;1918;-75
2023/03/21 09:25:12;;;;;;;;;;;;;;;22.45;27.36;97814.19;4959977;28;1068;-75
2023/03/21 09:27:38;;;;;;;;;;;;;;;22.19;27.81;97828.38;4975996;28;1046;-75
2023/03/21 09:30:04;;;;;;;;;;;;;;;21.95;27.99;97829.91;4960268;28;1126;-75
2023/03/21 09:32:30;;;;;;;;;;;;;;;21.71;28.48;97835.88;4936794;29;1005;-75
2023/03/21 09:34:56;;;;;;;;;;;;;;;21.87;28.17;97837.06;4921098;29;1275;-75
2023/03/21 09:37:21;;;;;;;;;;;;;;;22.09;28.46;97830.25;4921069;29;987;-75
2023/03/21 09:39:49;;;;;;;;;;;;;;;22.08;28.23;97827.88;4926608;29;1500;-76
2023/03/21 09:42:18;;;;;;;;;;;;;;;22.22;28.15;97833.13;4937650;29;1918;-77
2023/03/21 09:44:50;;;;;;;;;;;;;;;21.86;28.44;97822.06;4889437;29;1668;-76
2023/03/21 09:47:21;;;;;;;;;;;;;;;21.72;28.25;97828.19;4909643;29;1596;-76
2023/03/21 09:49:52;;;;;;;;;;;;;;;21.65;28.59;97829.16;4897174;29;1585;-76
2023/03/21 09:52:24;;;;;;;;;;;;;;;21.90;28.41;97838.97;4898965;29;931;-75
2023/03/21 09:54:51;;;;;;;;;;;;;;;22.00;28.19;97849.19;4935147;29;1046;-76
2023/03/21 09:57:30;;;;;;;;;;;;;;;21.78;28.68;97849.81;4917216;29;1637;-76
2023/03/21 09:59:57;;;;;;;;;;;;;;;21.72;28.36;97848.81;4905809;29;1604;-76
2023/03/21 10:02:31;;;;;;;;;;;;;;;21.63;28.57;97848.66;4917528;29;1989;-76
2023/03/21 10:04:58;;;;;;;;;;;;;;;22.03;28.44;97848.28;4917741;29;1119;-76
2023/03/21 10:07:23;;;;;;;;;;;;;;;22.12;28.05;97845.59;4902178;29;957;-76
2023/03/21 10:09:50;;;;;;;;;;;;;;;22.12;28.01;97848.41;4919217;29;937;-76
2023/03/21 10:12:20;;;;;;;;;;;;;;;21.99;28.33;97841.94;4955684;29;967;-76
2023/03/21 10:14:49;;;;;;;;;;;;;;;21.83;28.26;97834.31;4939432;29;1612;-76
2023/03/21 10:17:17;;;;;;;;;;;;;;;21.78;28.52;97837.72;4958448;28;1365;-76
2023/03/21 10:19:45;;;;;;;;;;;;;;;22.16;28.33;97837.78;4975114;28;1017;-76
2023/03/21 10:22:10;;;;;;;;;;;;;;;22.08;28.41;97839.22;4968990;28;1906;-77
2023/03/21 10:24:36;;;;;;;;;;;;;;;21.75;28.76;97833.72;4980682;28;1593;-77
2023/03/21 10:27:02;;;;;;;;;;;;;;;21.90;28.21;97833.31;5025623;28;1289;-77
2023/03/21 10:29:29;;;;;;;;;;;;;;;21.72;28.82;97839.50;4975777;28;1653;-76
2023/03/21 10:31:55;;;;;;;;;;;;;;;22.08;28.49;97842.84;4958581;28;1026;-76
2023/03/21 10:34:31;;;;;;;;;;;;;;;22.23;28.23;97834.72;4974642;28;1127;-76
2023/03/21 10:36:56;;;;;;;;;;;;;;;21.90;28.53;97844.63;4958703;28;1056;-76
2023/03/21 10:39:40;;;;;;;;;;;;;;;21.74;28.41;97831.34;4974683;28;1026;-76
2023/03/21 10:42:06;;;;;;;;;;;;;;;21.78;28.40;97832.84;4958698;28;1911;-76
2023/03/21 10:44:32;;;;;;;;;;;;;;;21.59;29.02;97830.97;4966997;28;1501;-76
2023/03/21 10:47:02;;;;;;;;;;;;;;;21.99;28.66;97833.44;4990157;28;1508;-76
2023/03/21 10:49:28;;;;;;;;;;;;;;;22.19;28.17;97836.88;4977047;28;1546;-75
2023/03/21 10:51:55;;;;;;;;;;;;;;;21.92;28.42;97831.63;4974798;28;1037;-76
2023/03/21 10:54:21;;;;;;;;;;;;;;;21.81;28.35;97825.47;4974471;28;949;-76
2023/03/21 10:56:56;;;;;;;;;;;;;;;21.65;28.64;97829.16;4958599;28;1026;-75
2023/03/21 10:59:21;;;;;;;;;;;;;;;21.88;28.62;97832.97;4977265;28;999;-76
2023/03/21 11:01:47;;;;;;;;;;;;;;;22.14;28.47;97837.44;4962285;28;1972;-76
2023/03/21 11:04:17;;;;;;;;;;;;;;;22.29;27.89;97838.56;4946257;28;1158;-77
2023/03/21 11:06:50;;;;;;;;;;;;;;;21.86;28.55;97827.72;4962341;28;1167;-76
2023/03/21 11:09:16;;;;;;;;;;;;;;;21.78;28.34;97832.84;4946137;28;985;-76
2023/03/21 11:12:08;;;;;;;;;;;;;;;21.77;28.79;97819.91;4962471;28;989;-76
2023/03/21 11:14:40;;;;;;;;;;;;;;;22.14;28.34;97826.09;4923722;29;991;-76
2023/03/21 11:17:18;;;;;;;;;;;;;;;22.24;28.03;97829.84;4924252;29;982;-76
2023/03/21 11:19:49;;;;;;;;;;;;;;;22.02;28.04;97816.34;4923439;29;977;-76
2023/03/21 11:22:14;;;;;;;;;;;;;;;21.75;28.60;97822.41;4939640;29;1915;-77
2023/03/21 11:24:40;;;;;;;;;;;;;;;21.77;28.12;97808.59;4939589;29;1036;-75
2023/03/21 11:27:06;;;;;;;;;;;;;;;21.64;28.32;97819.09;4939490;29;976;-75
2023/03/21 11:29:33;;;;;;;;;;;;;;;21.99;28.73;97807.94;4939585;29;1034;-75
2023/03/21 11:32:21;;;;;;;;;;;;;;;22.20;28.24;97807.28;4939258;29;1503;-76
2023/03/21 11:34:56;;;;;;;;;;;;;;;22.09;28.19;97812.47;4924626;29;1395;-76
2023/03/21 11:37:48;;;;;;;;;;;;;;;21.89;28.28;97797.72;4928809;29;1574;-75
2023/03/21 11:40:16;;;;;;;;;;;;;;;21.81;28.57;97808.47;4898669;29;1451;-76
2023/03/21 11:42:42;;;;;;;;;;;;;;;22.10;28.53;97809.22;4900403;29;1915;-75
2023/03/21 11:45:14;;;;;;;;;;;;;;;22.24;28.02;97810.81;4891009;29;1633;-76
2023/03/21 11:47:39;;;;;;;;;;;;;;;21.94;28.49;97800.00;4891156;29;1554;-75
2023/03/21 11:50:26;;;;;;;;;;;;;;;21.74;28.61;97798.16;4890502;29;1716;-75
2023/03/21 11:53:00;;;;;;;;;;;;;;;21.66;28.71;97788.31;4919038;29;1874;-76
2023/03/21 11:55:45;;;;;;;;;;;;;;;21.50;29.55;97777.03;4927470;29;1526;-76
2023/03/21 11:58:10;;;;;;;;;;;;;;;22.22;28.40;97773.59;4921015;29;1672;-76
2023/03/21 12:00:56;;;;;;;;;;;;;;;22.24;27.90;97773.97;4928534;29;2015;-75
2023/03/21 12:03:27;;;;;;;;;;;;;;;22.02;28.09;97773.00;4924319;29;1918;-76
2023/03/21 12:05:57;;;;;;;;;;;;;;;21.78;28.27;97776.19;4935665;29;1637;-76
2023/03/21 12:08:39;;;;;;;;;;;;;;;21.91;28.56;97778.22;4922934;29;944;-75
2023/03/21 12:11:10;;;;;;;;;;;;;;;22.12;28.35;97771.91;4930552;29;1199;-76
2023/03/21 12:13:41;;;;;;;;;;;;;;;22.23;28.17;97772.38;4926021;29;930;-76
2023/03/21 12:16:27;;;;;;;;;;;;;;;22.10;28.01;97778.03;4977893;28;924;-76
2023/03/21 12:18:59;;;;;;;;;;;;;;;21.85;28.17;97769.50;4981366;28;980;-75
2023/03/21 12:21:43;;;;;;;;;;;;;;;21.82;28.13;97776.88;4965540;28;1906;-75
2023/03/21 12:24:17;;;;;;;;;;;;;;;22.01;29.02;97777.88;5014943;28;1893;-76
2023/03/21 12:26:50;;;;;;;;;;;;;;;22.27;28.21;97767.38;5009407;28;2018;-75
2023/03/21 12:29:34;;;;;;;;;;;;;;;22.12;28.20;97771.13;5003295;28;1883;-76
2023/03/21 12:32:09;;;;;;;;;;;;;;;21.90;28.39;97771.78;5008921;28;1693;-75
2023/03/21 12:34:44;;;;;;;;;;;;;;;21.76;28.35;97775.03;5000696;28;990;-76
2023/03/21 12:37:27;;;;;;;;;;;;;;;21.73;28.31;97756.94;5000574;28;890;-76
2023/03/21 12:39:54;;;;;;;;;;;;;;;21.69;28.48;97767.56;5018349;28;1142;-76
2023/03/21 12:42:19;;;;;;;;;;;;;;;22.25;28.35;97758.53;5000737;28;1910;-76
2023/03/21 12:44:46;;;;;;;;;;;;;;;22.07;28.33;97764.75;5000615;28;916;-76
2023/03/21 12:47:16;;;;;;;;;;;;;;;22.19;28.19;97751.06;4984352;28;1138;-75
2023/03/21 12:49:44;;;;;;;;;;;;;;;22.05;28.55;97749.44;5017876;28;904;-75
2023/03/21 12:52:14;;;;;;;;;;;;;;;21.90;28.47;97759.66;5000232;28;853;-75
2023/03/21 12:54:50;;;;;;;;;;;;;;;21.80;28.46;97751.03;5000948;28;1003;-76
2023/03/21 12:57:17;;;;;;;;;;;;;;;21.99;28.91;97754.09;5000481;28;1102;-76
2023/03/21 12:59:45;;;;;;;;;;;;;;;22.17;28.57;97748.66;5000424;28;945;-75
2023/03/21 13:02:20;;;;;;;;;;;;;;;22.31;28.04;97744.56;5017428;28;1911;-76
2023/03/21 13:05:03;;;;;;;;;;;;;;;22.15;28.32;97742.66;4983999;28;1139;-76
2023/03/21 13:07:30;;;;;;;;;;;;;;;21.70;28.94;97743.66;4984659;28;1171;-76
2023/03/21 13:09:56;;;;;;;;;;;;;;;22.15;28.64;97730.56;4983990;28;964;-76